Time;durP1;ratioP1;P1;durP2;ratioP2;P2;SDS_P1;SDS_P2;PMS_P1;PMS_P2;Temp;Humidity;BMP_temperature;BMP_pressure;BME280_temperature;BME280_humidity;BME280_pressure;Samples;Min_cycle;Max_cycle;Signal;HPM_P1;HPM_P2
2021/09/24 00:00:11;;;;;;;;;24.67;20.67;;;;;;;;5012950;28;46642;-78
2021/09/24 00:02:38;;;;;;;;;17.25;15.75;;;;;;;;5013388;28;46043;-79
2021/09/24 00:05:03;;;;;;;;;22.50;19.50;;;;;;;;5013827;28;46207;-78
2021/09/24 00:07:28;;;;;;;;;24.00;21.00;;;;;;;;5015980;28;45678;-78
2021/09/24 00:09:54;;;;;;;;;23.75;18.25;;;;;;;;5011566;28;45565;-78
2021/09/24 00:12:19;;;;;;;;;26.67;17.33;;;;;;;;5013581;28;46479;-78
2021/09/24 00:14:44;;;;;;;;;21.00;18.00;;;;;;;;5017130;28;46509;-78
2021/09/24 00:17:09;;;;;;;;;23.67;18.33;;;;;;;;5014727;28;46632;-78
2021/09/24 00:19:35;;;;;;;;;17.00;16.25;;;;;;;;5018942;28;47204;-78
2021/09/24 00:22:00;;;;;;;;;18.00;17.33;;;;;;;;5103212;22;46000;-91
2021/09/24 00:24:25;;;;;;;;;18.25;17.25;;;;;;;;5052006;27;45458;-92
2021/09/24 00:26:50;;;;;;;;;21.25;18.25;;;;;;;;5068452;28;45664;-91
2021/09/24 00:29:16;;;;;;;;;21.00;17.33;;;;;;;;5067724;28;46385;-92
2021/09/24 00:31:41;;;;;;;;;19.00;14.00;;;;;;;;5049770;28;46263;-92
2021/09/24 00:37:09;;;;;;;;;14.75;14.50;;;;;;;;5075518;22;46482;-78
2021/09/24 00:39:34;;;;;;;;;16.75;13.00;;;;;;;;5066128;27;46829;-78
2021/09/24 00:41:59;;;;;;;;;18.00;14.50;;;;;;;;5073535;27;45583;-78
2021/09/24 00:44:26;;;;;;;;;20.25;16.50;;;;;;;;5076229;27;46809;-78
2021/09/24 00:46:51;;;;;;;;;18.00;15.00;;;;;;;;5070503;27;52080;-78
2021/09/24 00:49:17;;;;;;;;;19.25;16.50;;;;;;;;5072848;27;46643;-78
2021/09/24 00:51:42;;;;;;;;;17.33;15.00;;;;;;;;5069658;27;45758;-78
2021/09/24 00:54:08;;;;;;;;;15.50;13.00;;;;;;;;5072986;27;47223;-78
2021/09/24 00:56:33;;;;;;;;;15.75;14.00;;;;;;;;5073856;27;48373;-78
2021/09/24 00:58:58;;;;;;;;;16.50;15.75;;;;;;;;5059371;27;47730;-78
2021/09/24 01:01:24;;;;;;;;;19.67;17.67;;;;;;;;5073086;27;47536;-78
2021/09/24 01:03:49;;;;;;;;;17.00;14.50;;;;;;;;5072036;27;45814;-78
2021/09/24 01:06:14;;;;;;;;;17.25;17.00;;;;;;;;5071677;27;45626;-78
2021/09/24 01:08:40;;;;;;;;;17.00;15.00;;;;;;;;5075789;27;47268;-78
2021/09/24 01:11:05;;;;;;;;;15.50;11.75;;;;;;;;5057689;27;46493;-78
2021/09/24 01:13:30;;;;;;;;;18.75;15.00;;;;;;;;5073510;27;47573;-78
2021/09/24 01:15:55;;;;;;;;;17.00;15.00;;;;;;;;5071693;27;45693;-78
2021/09/24 01:18:21;;;;;;;;;18.33;16.67;;;;;;;;5068983;27;45633;-78
2021/09/24 01:20:47;;;;;;;;;18.00;14.75;;;;;;;;5075702;27;45715;-78
2021/09/24 01:23:12;;;;;;;;;17.25;15.00;;;;;;;;5072944;27;45619;-78
2021/09/24 01:25:38;;;;;;;;;16.67;14.33;;;;;;;;5068226;27;45964;-78
2021/09/24 01:28:03;;;;;;;;;20.25;19.00;;;;;;;;5075383;27;46248;-78
2021/09/24 01:30:28;;;;;;;;;20.75;17.00;;;;;;;;5072775;27;47525;-78
2021/09/24 01:32:53;;;;;;;;;20.33;19.67;;;;;;;;5074385;27;45578;-78
2021/09/24 01:35:19;;;;;;;;;17.33;16.00;;;;;;;;5056458;27;45552;-78
2021/09/24 01:37:44;;;;;;;;;19.00;19.00;;;;;;;;5074120;27;45755;-78
2021/09/24 01:40:11;;;;;;;;;21.25;18.75;;;;;;;;5071865;27;45787;-78
2021/09/24 01:42:36;;;;;;;;;24.75;21.75;;;;;;;;5072836;27;46194;-78
2021/09/24 01:45:02;;;;;;;;;19.75;16.25;;;;;;;;5071621;27;45723;-77
2021/09/24 01:47:27;;;;;;;;;26.00;22.00;;;;;;;;5074865;27;45634;-78
2021/09/24 01:49:53;;;;;;;;;23.00;20.67;;;;;;;;5073416;27;45861;-78
2021/09/24 01:52:18;;;;;;;;;25.50;19.75;;;;;;;;5070571;27;45594;-78
2021/09/24 01:54:43;;;;;;;;;23.75;20.50;;;;;;;;5071032;27;45975;-78
2021/09/24 01:57:11;;;;;;;;;34.75;29.25;;;;;;;;5095307;22;45594;-93
2021/09/24 01:59:39;;;;;;;;;34.50;28.75;;;;;;;;5088018;27;46094;-93
2021/09/24 02:05:08;;;;;;;;;28.50;22.75;;;;;;;;5073275;22;45460;-78
2021/09/24 02:07:34;;;;;;;;;34.75;29.25;;;;;;;;5017787;28;47185;-78
2021/09/24 02:10:00;;;;;;;;;35.75;27.00;;;;;;;;5019638;28;46041;-78
2021/09/24 02:12:25;;;;;;;;;30.25;27.75;;;;;;;;5034060;28;47854;-79
2021/09/24 02:14:50;;;;;;;;;34.25;26.25;;;;;;;;5035894;28;45941;-78
2021/09/24 02:17:15;;;;;;;;;30.67;23.00;;;;;;;;5031337;28;45759;-78
2021/09/24 02:19:41;;;;;;;;;36.75;28.50;;;;;;;;5031561;28;45877;-78
2021/09/24 02:22:06;;;;;;;;;25.67;22.33;;;;;;;;5032529;28;45777;-78
2021/09/24 02:24:31;;;;;;;;;32.00;28.33;;;;;;;;5030778;28;45635;-77
2021/09/24 02:26:56;;;;;;;;;29.00;24.00;;;;;;;;5035639;28;47432;-78
2021/09/24 02:29:22;;;;;;;;;28.00;25.00;;;;;;;;5033163;28;45706;-78
2021/09/24 02:31:47;;;;;;;;;34.25;27.50;;;;;;;;5030390;28;47410;-78
2021/09/24 02:34:13;;;;;;;;;27.25;25.50;;;;;;;;5032022;28;47557;-78
2021/09/24 02:36:38;;;;;;;;;29.00;24.00;;;;;;;;5026861;28;48129;-78
2021/09/24 02:39:04;;;;;;;;;25.00;21.00;;;;;;;;5033897;28;46080;-78
2021/09/24 02:41:30;;;;;;;;;20.00;17.25;;;;;;;;5030051;28;45817;-78
2021/09/24 02:43:55;;;;;;;;;16.00;16.00;;;;;;;;5030811;28;45837;-78
2021/09/24 02:46:20;;;;;;;;;23.00;17.67;;;;;;;;5030767;28;45793;-78
2021/09/24 02:48:45;;;;;;;;;17.50;13.50;;;;;;;;5033863;28;45595;-78
2021/09/24 02:51:11;;;;;;;;;17.00;15.50;;;;;;;;5029695;28;46000;-78
2021/09/24 02:53:36;;;;;;;;;17.25;13.50;;;;;;;;5033349;28;45583;-77
2021/09/24 02:56:01;;;;;;;;;18.00;15.00;;;;;;;;5031618;28;46739;-78
2021/09/24 02:58:26;;;;;;;;;18.67;16.00;;;;;;;;5031983;28;47219;-78
2021/09/24 03:00:52;;;;;;;;;17.75;16.50;;;;;;;;5030565;28;47762;-78
2021/09/24 03:03:17;;;;;;;;;16.67;16.00;;;;;;;;5031022;28;49276;-78
2021/09/24 03:05:42;;;;;;;;;16.00;13.67;;;;;;;;5030687;28;46602;-77
2021/09/24 03:08:08;;;;;;;;;15.67;12.00;;;;;;;;5034896;28;45957;-77
2021/09/24 03:10:33;;;;;;;;;16.25;14.75;;;;;;;;5015513;28;45653;-78
2021/09/24 03:12:59;;;;;;;;;17.25;15.25;;;;;;;;5033761;22;45576;-92
2021/09/24 03:16:04;;;;;;;;;15.00;12.25;;;;;;;;5067062;27;47432;-94
2021/09/24 03:18:30;;;;;;;;;14.25;13.00;;;;;;;;5067880;28;45429;-93
2021/09/24 03:20:55;;;;;;;;;19.75;12.75;;;;;;;;5068598;27;45570;-92
2021/09/24 03:26:23;;;;;;;;;17.00;15.50;;;;;;;;5067955;22;45979;-78
2021/09/24 03:28:48;;;;;;;;;17.75;10.50;;;;;;;;5023489;28;45514;-78
2021/09/24 03:31:14;;;;;;;;;18.75;16.00;;;;;;;;5039547;28;45884;-78
2021/09/24 03:33:39;;;;;;;;;15.50;13.75;;;;;;;;5037632;28;45690;-78
2021/09/24 03:36:04;;;;;;;;;23.50;16.50;;;;;;;;5038787;28;45568;-78
2021/09/24 03:38:30;;;;;;;;;19.00;15.33;;;;;;;;5036712;28;45574;-78
2021/09/24 03:40:55;;;;;;;;;14.25;14.25;;;;;;;;5034853;28;46898;-78
2021/09/24 03:43:20;;;;;;;;;16.75;13.00;;;;;;;;5035935;28;46260;-78
2021/09/24 03:45:46;;;;;;;;;18.00;14.00;;;;;;;;5031243;28;47117;-78
2021/09/24 03:48:11;;;;;;;;;15.25;13.50;;;;;;;;5039084;28;45762;-77
2021/09/24 03:50:36;;;;;;;;;12.00;10.67;;;;;;;;5035214;28;45547;-78
2021/09/24 03:53:01;;;;;;;;;15.33;11.67;;;;;;;;5032847;28;45847;-78
2021/09/24 03:55:27;;;;;;;;;17.50;13.25;;;;;;;;5033958;28;46916;-78
2021/09/24 03:57:52;;;;;;;;;15.75;15.00;;;;;;;;5037429;28;52841;-78
2021/09/24 04:00:17;;;;;;;;;23.75;18.00;;;;;;;;5037150;28;46351;-78
2021/09/24 04:02:42;;;;;;;;;32.00;24.33;;;;;;;;5036945;28;45720;-78
2021/09/24 04:05:08;;;;;;;;;23.75;19.00;;;;;;;;5033458;28;46170;-78
2021/09/24 04:07:34;;;;;;;;;28.25;20.75;;;;;;;;5034559;28;46289;-78
2021/09/24 04:09:59;;;;;;;;;28.00;19.00;;;;;;;;5033843;28;45634;-78
2021/09/24 04:12:24;;;;;;;;;25.25;21.75;;;;;;;;5038480;28;45770;-78
2021/09/24 04:14:49;;;;;;;;;22.67;21.67;;;;;;;;5046958;28;46031;-78
2021/09/24 04:17:15;;;;;;;;;25.25;24.75;;;;;;;;5039012;28;45969;-78
2021/09/24 04:19:40;;;;;;;;;30.75;23.75;;;;;;;;5045059;28;45592;-78
2021/09/24 04:22:05;;;;;;;;;35.75;24.25;;;;;;;;5042011;28;45705;-78
2021/09/24 04:24:30;;;;;;;;;25.67;22.00;;;;;;;;5042640;28;47219;-78
2021/09/24 04:26:56;;;;;;;;;18.75;18.00;;;;;;;;5043740;28;45512;-78
2021/09/24 04:29:21;;;;;;;;;26.00;18.75;;;;;;;;5033171;28;46171;-78
2021/09/24 04:31:46;;;;;;;;;22.75;20.25;;;;;;;;5040631;28;47585;-78
2021/09/24 04:34:11;;;;;;;;;22.75;17.75;;;;;;;;5027820;28;48633;-78
2021/09/24 04:36:37;;;;;;;;;22.00;17.33;;;;;;;;5042356;28;46038;-78
2021/09/24 04:39:03;;;;;;;;;23.67;17.00;;;;;;;;5050023;28;45619;-78
2021/09/24 04:41:28;;;;;;;;;20.75;16.75;;;;;;;;5040992;28;45822;-78
2021/09/24 04:43:54;;;;;;;;;21.75;18.00;;;;;;;;5043634;28;48755;-78
2021/09/24 04:46:19;;;;;;;;;20.33;16.67;;;;;;;;5039257;28;45504;-78
2021/09/24 04:48:44;;;;;;;;;18.00;17.00;;;;;;;;5045841;28;45819;-78
2021/09/24 04:51:10;;;;;;;;;25.25;17.00;;;;;;;;5038736;28;46123;-78
2021/09/24 04:53:35;;;;;;;;;18.00;17.00;;;;;;;;5041282;28;46951;-78
2021/09/24 04:56:00;;;;;;;;;23.67;16.00;;;;;;;;5042558;28;46284;-78
2021/09/24 04:58:25;;;;;;;;;29.00;20.00;;;;;;;;5015626;28;55274;-78
2021/09/24 05:00:51;;;;;;;;;21.50;17.25;;;;;;;;5040727;28;46585;-78
2021/09/24 05:03:16;;;;;;;;;19.75;17.00;;;;;;;;5040532;28;46298;-77
2021/09/24 05:05:41;;;;;;;;;20.75;15.00;;;;;;;;5042266;28;45741;-77
2021/09/24 05:08:07;;;;;;;;;21.00;13.75;;;;;;;;5040613;28;45817;-77
2021/09/24 05:10:32;;;;;;;;;22.25;18.75;;;;;;;;5036476;28;47916;-77
2021/09/24 05:12:57;;;;;;;;;22.25;17.75;;;;;;;;5035351;28;47942;-78
2021/09/24 05:15:22;;;;;;;;;16.67;16.67;;;;;;;;5036675;28;45628;-78
2021/09/24 05:17:48;;;;;;;;;19.50;15.75;;;;;;;;5044241;28;46752;-78
2021/09/24 05:20:13;;;;;;;;;17.33;13.67;;;;;;;;5038670;28;45973;-78
2021/09/24 05:22:38;;;;;;;;;16.75;15.50;;;;;;;;5040565;28;47288;-79
2021/09/24 05:25:04;;;;;;;;;16.00;15.67;;;;;;;;5044201;28;45653;-78
2021/09/24 05:27:29;;;;;;;;;20.25;16.00;;;;;;;;5037010;28;45690;-79
2021/09/24 05:29:54;;;;;;;;;21.00;17.75;;;;;;;;5042049;28;45729;-79
2021/09/24 05:32:20;;;;;;;;;28.25;19.50;;;;;;;;5042740;28;46036;-79
2021/09/24 05:34:45;;;;;;;;;19.00;16.50;;;;;;;;5040657;28;46460;-79
2021/09/24 05:37:10;;;;;;;;;18.00;15.00;;;;;;;;5037529;28;46457;-79
2021/09/24 05:39:36;;;;;;;;;30.25;18.50;;;;;;;;5037940;28;45878;-78
2021/09/24 05:42:01;;;;;;;;;22.50;19.00;;;;;;;;5041453;28;46136;-79
2021/09/24 05:44:27;;;;;;;;;24.75;20.50;;;;;;;;5035518;28;45731;-79
2021/09/24 05:46:52;;;;;;;;;25.25;19.25;;;;;;;;5038265;28;47423;-78
2021/09/24 05:49:18;;;;;;;;;25.50;18.50;;;;;;;;5039166;28;46344;-78
2021/09/24 05:51:43;;;;;;;;;19.50;16.75;;;;;;;;5039593;28;46409;-77
2021/09/24 05:54:08;;;;;;;;;22.50;19.25;;;;;;;;5045263;28;47314;-79
2021/09/24 05:56:33;;;;;;;;;17.50;17.25;;;;;;;;5040879;28;45659;-79
2021/09/24 05:58:59;;;;;;;;;16.33;14.67;;;;;;;;5036388;28;45724;-79
2021/09/24 06:01:24;;;;;;;;;19.50;16.50;;;;;;;;5041980;28;45936;-80
2021/09/24 06:06:52;;;;;;;;;20.75;16.00;;;;;;;;5073733;22;45817;-84
2021/09/24 06:09:18;;;;;;;;;24.50;16.75;;;;;;;;5058676;28;45860;-81
2021/09/24 06:11:46;;;;;;;;;18.00;17.25;;;;;;;;5062266;27;45618;-82
2021/09/24 06:14:11;;;;;;;;;20.00;19.50;;;;;;;;5057227;28;45804;-81
2021/09/24 06:16:36;;;;;;;;;17.25;16.00;;;;;;;;5055714;28;45992;-82
2021/09/24 06:19:02;;;;;;;;;20.00;18.50;;;;;;;;5057286;27;46141;-81
2021/09/24 06:21:28;;;;;;;;;23.00;16.25;;;;;;;;5059547;27;47483;-80
2021/09/24 06:23:54;;;;;;;;;15.75;14.50;;;;;;;;5057329;27;45817;-78
2021/09/24 06:26:19;;;;;;;;;18.00;14.25;;;;;;;;5055248;27;45581;-79
2021/09/24 06:28:44;;;;;;;;;21.67;18.67;;;;;;;;5065720;27;45556;-79
2021/09/24 06:31:10;;;;;;;;;22.50;19.00;;;;;;;;5058143;27;45570;-79
2021/09/24 06:33:35;;;;;;;;;18.00;15.25;;;;;;;;5056423;27;45590;-80
2021/09/24 06:36:01;;;;;;;;;21.75;15.75;;;;;;;;5069062;27;45603;-79
2021/09/24 06:38:26;;;;;;;;;22.75;15.00;;;;;;;;5061552;27;46089;-80
2021/09/24 06:40:51;;;;;;;;;23.75;19.50;;;;;;;;5061857;27;45482;-79
2021/09/24 06:43:17;;;;;;;;;17.00;13.75;;;;;;;;5058890;28;46801;-81
2021/09/24 06:45:42;;;;;;;;;19.50;15.25;;;;;;;;5060365;27;45505;-79
2021/09/24 06:48:07;;;;;;;;;23.75;19.00;;;;;;;;5067280;27;45270;-80
2021/09/24 06:50:33;;;;;;;;;22.00;19.75;;;;;;;;5040302;27;47749;-79
2021/09/24 06:52:58;;;;;;;;;17.75;15.75;;;;;;;;5057112;27;45623;-81
2021/09/24 06:55:25;;;;;;;;;17.75;15.50;;;;;;;;5060648;28;45522;-80
2021/09/24 06:57:51;;;;;;;;;21.00;18.50;;;;;;;;5054901;28;45829;-79
2021/09/24 07:05:26;;;;;;;;;24.25;20.00;;;;;;;;5642992;22;46077;-79
2021/09/24 07:07:52;;;;;;;;;23.75;18.00;;;;;;;;5058985;27;46425;-79
2021/09/24 07:10:18;;;;;;;;;17.00;14.75;;;;;;;;5060381;27;46101;-79
2021/09/24 07:12:43;;;;;;;;;20.00;16.75;;;;;;;;5055848;27;45815;-83
2021/09/24 07:15:09;;;;;;;;;19.75;18.75;;;;;;;;5045443;27;45647;-80
2021/09/24 07:17:35;;;;;;;;;25.50;19.75;;;;;;;;5058954;27;48023;-79
2021/09/24 07:20:01;;;;;;;;;21.00;17.50;;;;;;;;5040737;27;46810;-80
2021/09/24 07:22:26;;;;;;;;;24.25;19.50;;;;;;;;5063115;27;46964;-79
2021/09/24 07:24:54;;;;;;;;;23.50;18.75;;;;;;;;5054465;27;45500;-78
2021/09/24 07:27:19;;;;;;;;;22.50;18.00;;;;;;;;5124375;22;45796;-78
2021/09/24 07:29:45;;;;;;;;;24.00;20.25;;;;;;;;5055697;28;45639;-77
2021/09/24 07:32:10;;;;;;;;;29.00;21.33;;;;;;;;5057486;27;45806;-77
2021/09/24 07:34:38;;;;;;;;;24.67;21.00;;;;;;;;5059787;28;45557;-78
2021/09/24 07:37:04;;;;;;;;;23.50;20.75;;;;;;;;5059651;27;45591;-78
2021/09/24 07:39:29;;;;;;;;;23.00;19.00;;;;;;;;5060121;27;46439;-79
2021/09/24 07:41:54;;;;;;;;;26.00;19.50;;;;;;;;5067613;28;45782;-79
2021/09/24 07:44:20;;;;;;;;;29.00;24.00;;;;;;;;5062624;28;53959;-79
2021/09/24 07:46:47;;;;;;;;;22.75;17.00;;;;;;;;5060203;28;45546;-79
2021/09/24 07:49:12;;;;;;;;;22.75;18.75;;;;;;;;5059273;27;45718;-79
2021/09/24 07:51:37;;;;;;;;;26.75;20.25;;;;;;;;5051245;28;46037;-79
2021/09/24 07:54:03;;;;;;;;;27.50;24.00;;;;;;;;5051912;28;45537;-79
2021/09/24 07:56:28;;;;;;;;;22.50;20.75;;;;;;;;5059041;28;45537;-78
2021/09/24 07:58:53;;;;;;;;;24.75;21.25;;;;;;;;5056088;27;47237;-78
2021/09/24 08:01:19;;;;;;;;;23.25;15.00;;;;;;;;5061410;27;45499;-79
2021/09/24 08:03:44;;;;;;;;;25.00;19.75;;;;;;;;5045874;28;45571;-79
2021/09/24 08:06:10;;;;;;;;;20.50;17.50;;;;;;;;5059348;27;45522;-79
2021/09/24 08:08:35;;;;;;;;;22.00;18.00;;;;;;;;5045225;28;45708;-78
2021/09/24 08:11:01;;;;;;;;;18.00;15.67;;;;;;;;5055736;28;55156;-79
2021/09/24 08:13:26;;;;;;;;;25.25;19.75;;;;;;;;5057086;27;45839;-79
2021/09/24 08:15:53;;;;;;;;;28.00;19.75;;;;;;;;5059291;28;46171;-79
2021/09/24 08:18:18;;;;;;;;;21.00;18.25;;;;;;;;5056321;27;49279;-78
2021/09/24 08:20:45;;;;;;;;;25.00;21.50;;;;;;;;5079996;27;45888;-79
2021/09/24 08:23:30;;;;;;;;;29.00;20.75;;;;;;;;5675459;22;45523;-77
2021/09/24 08:25:55;;;;;;;;;23.25;16.75;;;;;;;;5058407;27;45498;-77
2021/09/24 08:28:20;;;;;;;;;21.75;14.75;;;;;;;;5058465;28;45521;-78
2021/09/24 08:30:46;;;;;;;;;20.25;16.75;;;;;;;;5045364;28;45820;-77
2021/09/24 08:33:14;;;;;;;;;27.00;18.00;;;;;;;;5046383;28;45888;-78
2021/09/24 08:35:39;;;;;;;;;18.50;16.00;;;;;;;;5049021;28;45725;-78
2021/09/24 08:38:04;;;;;;;;;23.50;20.25;;;;;;;;5047305;28;45621;-78
2021/09/24 08:40:30;;;;;;;;;24.00;18.75;;;;;;;;5042523;28;46322;-78
2021/09/24 08:42:56;;;;;;;;;23.50;18.25;;;;;;;;5045889;27;45750;-77
2021/09/24 08:45:30;;;;;;;;;29.75;21.50;;;;;;;;5052004;28;45722;-77
2021/09/24 08:48:03;;;;;;;;;27.75;21.50;;;;;;;;5049213;28;47489;-78
2021/09/24 08:50:30;;;;;;;;;25.50;20.75;;;;;;;;5051310;28;45823;-78
2021/09/24 08:52:55;;;;;;;;;22.50;20.00;;;;;;;;5047346;27;45722;-78
2021/09/24 08:58:26;;;;;;;;;27.00;21.25;;;;;;;;5040803;22;47515;-78
2021/09/24 09:00:52;;;;;;;;;24.50;21.75;;;;;;;;5048061;28;46095;-78
2021/09/24 09:03:20;;;;;;;;;23.50;20.75;;;;;;;;5030554;28;45441;-78
2021/09/24 09:05:49;;;;;;;;;24.75;20.00;;;;;;;;5051908;28;45807;-77
2021/09/24 09:08:17;;;;;;;;;24.50;18.50;;;;;;;;5052008;28;46219;-78
2021/09/24 09:10:56;;;;;;;;;20.00;16.25;;;;;;;;5049973;28;46752;-77
2021/09/24 09:13:22;;;;;;;;;22.00;18.00;;;;;;;;5049806;28;45574;-77
2021/09/24 09:16:02;;;;;;;;;25.25;17.25;;;;;;;;5047939;28;45891;-78
2021/09/24 09:18:30;;;;;;;;;17.50;16.25;;;;;;;;5049136;28;46364;-77
2021/09/24 09:20:55;;;;;;;;;16.25;16.00;;;;;;;;5056859;28;45716;-77
2021/09/24 09:23:22;;;;;;;;;22.25;16.50;;;;;;;;5053924;28;45658;-78
2021/09/24 09:25:49;;;;;;;;;19.25;16.25;;;;;;;;5050897;28;45595;-78
2021/09/24 09:28:35;;;;;;;;;23.75;17.00;;;;;;;;5055450;27;46150;-77
2021/09/24 09:31:00;;;;;;;;;21.00;15.75;;;;;;;;5046003;28;45532;-78
2021/09/24 09:33:27;;;;;;;;;19.25;17.00;;;;;;;;5049636;28;46643;-78
2021/09/24 09:35:56;;;;;;;;;17.75;14.50;;;;;;;;5053261;28;45636;-78
2021/09/24 09:38:24;;;;;;;;;16.25;16.25;;;;;;;;5050501;28;45572;-78
2021/09/24 09:40:52;;;;;;;;;17.00;14.75;;;;;;;;5054329;28;45722;-78
2021/09/24 09:43:21;;;;;;;;;16.75;13.75;;;;;;;;5049170;28;45654;-78
2021/09/24 09:45:47;;;;;;;;;15.00;14.00;;;;;;;;5052432;28;52353;-78
2021/09/24 09:48:13;;;;;;;;;14.75;13.50;;;;;;;;5041666;28;46333;-78
2021/09/24 09:50:39;;;;;;;;;16.00;12.00;;;;;;;;5054841;28;45657;-78
2021/09/24 09:53:04;;;;;;;;;15.25;14.00;;;;;;;;5051932;27;45948;-78
2021/09/24 09:55:35;;;;;;;;;20.50;15.75;;;;;;;;5048832;28;45540;-78
2021/09/24 09:58:02;;;;;;;;;13.00;12.00;;;;;;;;5054131;28;46187;-78
2021/09/24 10:00:29;;;;;;;;;16.75;13.25;;;;;;;;5054752;28;45842;-78
2021/09/24 10:03:09;;;;;;;;;14.25;13.00;;;;;;;;5049885;28;45579;-77
2021/09/24 10:05:36;;;;;;;;;16.50;14.00;;;;;;;;5059226;28;45518;-78
2021/09/24 10:08:37;;;;;;;;;15.00;12.75;;;;;;;;5053189;28;46923;-77
2021/09/24 10:11:07;;;;;;;;;18.50;15.50;;;;;;;;5018398;28;45616;-78
2021/09/24 10:13:36;;;;;;;;;14.75;14.50;;;;;;;;5010499;28;46683;-78
2021/09/24 10:16:02;;;;;;;;;19.00;12.50;;;;;;;;5011038;28;46507;-78
2021/09/24 10:18:28;;;;;;;;;16.00;14.50;;;;;;;;5008543;28;46184;-78
2021/09/24 10:20:53;;;;;;;;;18.50;16.00;;;;;;;;5025126;28;45952;-78
2021/09/24 10:23:19;;;;;;;;;13.25;11.75;;;;;;;;5005136;28;45588;-78
2021/09/24 10:25:47;;;;;;;;;16.25;12.75;;;;;;;;5007636;28;45438;-79
2021/09/24 10:28:12;;;;;;;;;20.25;14.25;;;;;;;;5013009;28;45514;-79
2021/09/24 10:30:38;;;;;;;;;20.75;15.25;;;;;;;;5000699;28;46110;-78
2021/09/24 10:33:08;;;;;;;;;19.50;15.50;;;;;;;;5016205;28;45720;-78
2021/09/24 10:35:45;;;;;;;;;17.75;14.75;;;;;;;;5008074;28;47361;-79
2021/09/24 10:38:10;;;;;;;;;15.50;13.75;;;;;;;;5005707;28;47368;-78
2021/09/24 10:40:35;;;;;;;;;23.00;14.00;;;;;;;;5002637;28;47099;-78
2021/09/24 10:43:12;;;;;;;;;18.50;13.75;;;;;;;;5005630;28;45542;-79
2021/09/24 10:45:42;;;;;;;;;19.25;14.75;;;;;;;;5029978;28;45632;-78
2021/09/24 10:48:18;;;;;;;;;16.75;13.25;;;;;;;;5050950;28;46762;-77
2021/09/24 10:50:45;;;;;;;;;18.00;15.00;;;;;;;;5059793;27;46169;-79
2021/09/24 10:53:10;;;;;;;;;15.25;15.00;;;;;;;;5047761;28;45851;-78
2021/09/24 10:55:39;;;;;;;;;20.75;17.25;;;;;;;;5046112;28;46138;-79
2021/09/24 10:58:05;;;;;;;;;17.00;14.50;;;;;;;;5043020;28;46520;-79
2021/09/24 11:00:32;;;;;;;;;16.75;14.00;;;;;;;;5045342;28;45726;-79
2021/09/24 11:03:16;;;;;;;;;17.50;16.00;;;;;;;;5047907;28;45610;-78
2021/09/24 11:06:04;;;;;;;;;17.25;15.50;;;;;;;;5040079;28;46232;-78
2021/09/24 11:08:32;;;;;;;;;20.00;17.00;;;;;;;;5036529;28;47546;-78
2021/09/24 11:11:09;;;;;;;;;23.75;16.75;;;;;;;;5044058;28;45682;-78
2021/09/24 11:13:36;;;;;;;;;18.00;14.75;;;;;;;;5050033;28;52324;-79
2021/09/24 11:16:05;;;;;;;;;17.00;14.00;;;;;;;;5047652;28;47200;-78
2021/09/24 11:18:49;;;;;;;;;21.50;16.75;;;;;;;;5044990;28;45476;-79
2021/09/24 11:21:18;;;;;;;;;23.00;14.75;;;;;;;;5046728;28;46015;-78
2021/09/24 11:23:44;;;;;;;;;17.75;14.75;;;;;;;;5049883;28;47360;-78
2021/09/24 11:26:17;;;;;;;;;20.25;15.25;;;;;;;;5050417;28;45680;-78
2021/09/24 11:28:44;;;;;;;;;17.00;14.00;;;;;;;;5050990;28;45954;-78
2021/09/24 11:31:09;;;;;;;;;20.75;17.00;;;;;;;;5050023;28;55209;-78
2021/09/24 11:33:46;;;;;;;;;17.75;14.50;;;;;;;;5047527;28;46156;-78
2021/09/24 11:36:11;;;;;;;;;20.50;18.25;;;;;;;;5053688;28;45584;-78
2021/09/24 11:38:37;;;;;;;;;14.25;11.00;;;;;;;;5052811;28;46008;-78
2021/09/24 11:41:03;;;;;;;;;13.25;12.25;;;;;;;;5050580;28;45591;-77
2021/09/24 11:43:30;;;;;;;;;14.00;14.00;;;;;;;;5055499;27;45470;-76
2021/09/24 11:48:33;;;;;;;;;12.75;11.50;;;;;;;;5681555;22;48259;-78
2021/09/24 11:51:08;;;;;;;;;14.75;14.50;;;;;;;;5092100;27;46237;-79
2021/09/24 11:53:42;;;;;;;;;19.50;14.75;;;;;;;;5094452;27;47541;-78
2021/09/24 11:56:07;;;;;;;;;20.00;16.50;;;;;;;;5087234;27;45810;-79
2021/09/24 11:58:32;;;;;;;;;13.50;12.50;;;;;;;;5087834;27;46002;-78
2021/09/24 12:00:58;;;;;;;;;15.00;12.33;;;;;;;;5090322;27;51869;-79
2021/09/24 12:03:30;;;;;;;;;11.75;11.25;;;;;;;;5094515;27;47534;-79
2021/09/24 12:06:05;;;;;;;;;19.75;15.00;;;;;;;;5090637;27;45575;-78
2021/09/24 12:08:32;;;;;;;;;17.75;14.75;;;;;;;;5093117;27;45546;-78
2021/09/24 12:10:57;;;;;;;;;16.25;13.00;;;;;;;;5074307;27;58214;-78
2021/09/24 12:13:22;;;;;;;;;15.33;14.00;;;;;;;;5087994;27;45609;-78
2021/09/24 12:15:54;;;;;;;;;14.25;13.00;;;;;;;;5086869;27;46739;-79
2021/09/24 12:18:20;;;;;;;;;15.00;12.75;;;;;;;;5090442;27;46196;-79
2021/09/24 12:20:45;;;;;;;;;18.50;13.25;;;;;;;;5091920;27;45453;-78
2021/09/24 12:23:11;;;;;;;;;18.50;13.50;;;;;;;;5074696;27;45718;-79
2021/09/24 12:25:36;;;;;;;;;20.25;17.75;;;;;;;;5088668;27;45522;-78
2021/09/24 12:28:11;;;;;;;;;15.75;13.75;;;;;;;;5063728;27;46193;-79
2021/09/24 12:30:38;;;;;;;;;19.50;16.25;;;;;;;;5071861;27;46762;-79
2021/09/24 12:33:14;;;;;;;;;23.00;17.00;;;;;;;;5092139;27;45632;-79
2021/09/24 12:35:39;;;;;;;;;15.25;14.25;;;;;;;;5093314;27;46892;-79
2021/09/24 12:38:05;;;;;;;;;18.75;13.25;;;;;;;;5094044;27;45702;-78
2021/09/24 12:40:31;;;;;;;;;22.25;16.50;;;;;;;;5094544;27;45890;-80
2021/09/24 12:42:57;;;;;;;;;20.50;15.00;;;;;;;;5090889;27;45727;-79
2021/09/24 12:45:25;;;;;;;;;16.50;13.00;;;;;;;;5097713;27;45626;-80
2021/09/24 12:47:50;;;;;;;;;16.50;14.00;;;;;;;;5097634;27;45836;-80
2021/09/24 12:50:15;;;;;;;;;15.50;14.00;;;;;;;;5095125;27;45616;-79
2021/09/24 12:52:41;;;;;;;;;15.25;13.25;;;;;;;;5093511;27;45640;-79
2021/09/24 12:55:07;;;;;;;;;19.67;19.33;;;;;;;;5089294;27;45577;-78
2021/09/24 12:57:33;;;;;;;;;20.50;13.00;;;;;;;;5093728;27;46189;-79
2021/09/24 13:00:00;;;;;;;;;14.50;13.50;;;;;;;;5094930;27;47934;-79
2021/09/24 13:02:26;;;;;;;;;19.75;14.50;;;;;;;;5098693;27;45787;-78
2021/09/24 13:04:52;;;;;;;;;13.25;11.50;;;;;;;;5095630;27;45598;-79
2021/09/24 13:07:17;;;;;;;;;18.50;15.00;;;;;;;;5089816;27;45725;-79
2021/09/24 13:09:43;;;;;;;;;16.25;13.00;;;;;;;;5090778;27;45519;-79
2021/09/24 13:12:08;;;;;;;;;16.50;15.75;;;;;;;;5096020;27;45830;-79
2021/09/24 13:14:33;;;;;;;;;14.25;12.75;;;;;;;;5090414;27;45972;-79
2021/09/24 13:16:58;;;;;;;;;18.50;14.75;;;;;;;;5096668;27;46965;-78
2021/09/24 13:19:24;;;;;;;;;19.33;15.00;;;;;;;;5086101;27;45649;-77
2021/09/24 13:21:49;;;;;;;;;13.33;11.00;;;;;;;;5092290;27;45874;-78
2021/09/24 13:24:14;;;;;;;;;12.67;11.33;;;;;;;;5090587;27;46108;-78
2021/09/24 13:26:39;;;;;;;;;19.50;14.00;;;;;;;;5089566;27;46235;-78
2021/09/24 13:29:05;;;;;;;;;16.75;14.50;;;;;;;;5100612;27;46292;-79
2021/09/24 13:31:31;;;;;;;;;14.50;12.25;;;;;;;;5095297;27;45645;-78
2021/09/24 13:33:56;;;;;;;;;16.75;14.25;;;;;;;;5095845;27;45564;-78
2021/09/24 13:36:21;;;;;;;;;16.00;13.25;;;;;;;;5090845;27;48922;-79
2021/09/24 13:38:47;;;;;;;;;21.25;15.25;;;;;;;;5105599;27;45701;-78
2021/09/24 13:41:12;;;;;;;;;16.00;14.75;;;;;;;;5094962;27;45727;-80
2021/09/24 13:43:37;;;;;;;;;18.67;13.33;;;;;;;;5094904;27;45507;-78
2021/09/24 13:46:03;;;;;;;;;18.75;15.00;;;;;;;;5088235;27;46265;-79
2021/09/24 13:48:28;;;;;;;;;22.25;16.00;;;;;;;;5067297;27;45790;-78
2021/09/24 13:50:53;;;;;;;;;15.25;12.50;;;;;;;;5071873;27;46737;-79
2021/09/24 13:53:19;;;;;;;;;16.25;13.75;;;;;;;;5073392;27;47033;-79
2021/09/24 13:55:44;;;;;;;;;17.50;13.25;;;;;;;;5070957;27;47064;-78
2021/09/24 13:58:09;;;;;;;;;18.25;15.75;;;;;;;;5070532;27;50556;-78
2021/09/24 14:00:35;;;;;;;;;19.25;14.50;;;;;;;;5072225;27;45684;-78
2021/09/24 14:03:00;;;;;;;;;19.75;16.25;;;;;;;;5079370;27;45823;-79
2021/09/24 14:05:25;;;;;;;;;21.25;17.25;;;;;;;;5068645;27;46116;-78
2021/09/24 14:07:51;;;;;;;;;18.33;14.00;;;;;;;;5071014;27;45594;-78
2021/09/24 14:10:16;;;;;;;;;17.00;16.00;;;;;;;;5075118;27;45592;-78
2021/09/24 14:12:42;;;;;;;;;13.75;12.00;;;;;;;;5070434;27;45870;-79
2021/09/24 14:15:09;;;;;;;;;15.00;14.50;;;;;;;;5073479;27;46691;-78
2021/09/24 14:17:34;;;;;;;;;15.00;13.25;;;;;;;;5072213;27;45609;-78
2021/09/24 14:19:59;;;;;;;;;13.25;11.75;;;;;;;;5074560;27;46130;-78
2021/09/24 14:22:25;;;;;;;;;19.25;16.75;;;;;;;;5069256;27;45850;-78
2021/09/24 14:24:50;;;;;;;;;19.00;17.25;;;;;;;;5073515;27;47289;-79
2021/09/24 14:27:15;;;;;;;;;13.00;13.00;;;;;;;;5070199;27;45677;-77
2021/09/24 14:29:40;;;;;;;;;16.25;12.75;;;;;;;;5079003;27;45590;-79
2021/09/24 14:32:07;;;;;;;;;13.50;12.75;;;;;;;;5073415;27;50440;-78
2021/09/24 14:34:32;;;;;;;;;12.00;12.00;;;;;;;;5072571;27;46215;-76